Time;durP1;ratioP1;P1;durP2;ratioP2;P2;SDS_P1;SDS_P2;PMS_P1;PMS_P2;Temp;Humidity;BMP_temperature;BMP_pressure;BME280_temperature;BME280_humidity;BME280_pressure;Samples;Min_cycle;Max_cycle;Signal;HPM_P1;HPM_P2
2023/01/03 00:00:35;;;;;;;7.13;5.03;;;8.10;99.90;;;;;;5015868;28;20171;-77
2023/01/03 00:03:01;;;;;;;6.17;5.30;;;8.10;99.90;;;;;;4997382;28;20203;-77
2023/01/03 00:05:27;;;;;;;6.20;5.10;;;8.00;99.90;;;;;;5016245;28;20187;-77
2023/01/03 00:07:53;;;;;;;5.17;4.67;;;8.00;99.90;;;;;;4997970;28;20171;-79
2023/01/03 00:10:18;;;;;;;6.73;5.13;;;8.00;99.90;;;;;;5015489;28;20180;-80
2023/01/03 00:12:44;;;;;;;6.23;4.97;;;8.00;99.90;;;;;;5015067;28;20707;-77
2023/01/03 00:15:13;;;;;;;4.90;4.33;;;7.90;99.90;;;;;;5015579;28;20213;-77
2023/01/03 00:17:39;;;;;;;5.20;4.70;;;7.90;99.90;;;;;;5015390;28;20558;-77
2023/01/03 00:20:05;;;;;;;4.87;4.37;;;7.90;99.90;;;;;;4997921;28;20183;-77
2023/01/03 00:22:31;;;;;;;8.73;5.07;;;7.90;99.90;;;;;;4998814;28;20301;-76
2023/01/03 00:24:56;;;;;;;5.63;4.93;;;7.90;99.90;;;;;;4998009;28;20303;-77
2023/01/03 00:27:22;;;;;;;6.50;4.97;;;7.90;99.90;;;;;;5015870;28;20179;-77
2023/01/03 00:29:48;;;;;;;7.17;5.30;;;7.80;99.90;;;;;;5015060;28;20179;-77
2023/01/03 00:32:14;;;;;;;5.20;4.70;;;7.80;99.90;;;;;;4997106;28;20283;-74
2023/01/03 00:34:41;;;;;;;5.60;4.90;;;7.80;99.90;;;;;;5015197;28;20179;-77
2023/01/03 00:37:07;;;;;;;5.50;4.77;;;7.80;99.90;;;;;;4997482;28;20179;-76
2023/01/03 00:39:33;;;;;;;5.30;4.70;;;7.80;99.90;;;;;;4997725;28;20251;-77
2023/01/03 00:41:58;;;;;;;5.60;5.00;;;7.80;99.90;;;;;;4996038;28;20195;-77
2023/01/03 00:44:24;;;;;;;5.53;4.53;;;7.80;99.90;;;;;;5014307;28;20213;-76
2023/01/03 00:46:49;;;;;;;4.47;3.40;;;7.80;99.90;;;;;;4997321;28;20210;-76
2023/01/03 00:49:15;;;;;;;6.43;3.57;;;7.70;99.90;;;;;;5014776;28;20267;-77
2023/01/03 00:51:41;;;;;;;2.90;2.63;;;7.70;99.90;;;;;;5014770;28;20261;-77
2023/01/03 00:54:08;;;;;;;2.50;1.90;;;7.90;99.90;;;;;;5014101;28;20215;-76
2023/01/03 00:56:37;;;;;;;1.93;1.73;;;7.90;99.90;;;;;;5014696;28;20542;-76
2023/01/03 00:59:04;;;;;;;2.00;1.50;;;7.90;99.90;;;;;;5014530;28;20258;-77
2023/01/03 01:01:40;;;;;;;1.83;1.37;;;7.90;99.90;;;;;;4996946;28;20203;-77
2023/01/03 01:04:09;;;;;;;1.50;1.40;;;7.80;99.90;;;;;;4996554;28;20206;-77
2023/01/03 01:06:39;;;;;;;2.00;1.30;;;7.80;99.90;;;;;;4997256;28;20249;-77
2023/01/03 01:09:06;;;;;;;2.37;1.20;;;7.80;99.90;;;;;;5014787;28;20177;-76
2023/01/03 01:11:33;;;;;;;1.37;1.23;;;7.80;99.90;;;;;;4997260;28;20229;-77
2023/01/03 01:13:58;;;;;;;1.40;1.30;;;7.80;99.90;;;;;;5013885;28;20266;-77
2023/01/03 01:16:27;;;;;;;1.43;1.20;;;7.70;99.90;;;;;;4996844;28;20178;-76
2023/01/03 01:18:53;;;;;;;1.87;1.50;;;7.70;99.90;;;;;;5014452;28;20186;-77
2023/01/03 01:21:23;;;;;;;2.40;1.50;;;7.70;99.90;;;;;;5014241;28;20210;-77
2023/01/03 01:23:49;;;;;;;2.73;1.60;;;7.60;99.90;;;;;;5013566;28;20235;-77
2023/01/03 01:26:17;;;;;;;1.93;1.80;;;7.50;99.90;;;;;;5014266;28;20175;-76
2023/01/03 01:28:43;;;;;;;2.40;2.17;;;7.50;99.90;;;;;;4996557;28;20256;-76
2023/01/03 01:31:12;;;;;;;3.90;2.70;;;7.50;99.90;;;;;;5014079;28;20322;-77
2023/01/03 01:33:37;;;;;;;2.70;2.40;;;7.50;99.90;;;;;;4995846;28;20179;-77
2023/01/03 01:36:06;;;;;;;3.60;2.93;;;7.50;99.90;;;;;;5014068;28;20183;-76
2023/01/03 01:38:32;;;;;;;2.53;2.33;;;7.50;99.90;;;;;;4996572;28;20179;-77
2023/01/03 01:40:57;;;;;;;3.60;3.03;;;7.40;99.90;;;;;;5012733;28;20279;-76
2023/01/03 01:46:16;;;;;;;3.23;2.83;;;7.30;99.90;;;;;;5013911;28;20182;-77
2023/01/03 01:48:42;;;;;;;4.23;3.20;;;7.40;99.90;;;;;;4996222;28;20178;-76
2023/01/03 01:51:09;;;;;;;3.67;3.10;;;7.40;99.90;;;;;;4996093;28;20192;-77
2023/01/03 01:53:37;;;;;;;4.13;3.33;;;7.30;99.90;;;;;;5012956;28;20211;-78
2023/01/03 01:56:17;;;;;;;3.67;3.27;;;7.30;99.90;;;;;;4996377;28;20211;-77
2023/01/03 01:58:46;;;;;;;3.60;3.10;;;7.20;99.90;;;;;;5013677;28;20176;-77
2023/01/03 02:01:13;;;;;;;4.43;3.27;;;7.20;99.90;;;;;;4996209;28;20203;-77
2023/01/03 02:03:43;;;;;;;3.83;3.47;;;7.20;99.90;;;;;;4995509;28;20463;-77
2023/01/03 02:06:12;;;;;;;3.50;3.20;;;7.20;99.90;;;;;;4995811;28;20179;-76
2023/01/03 02:08:37;;;;;;;3.47;3.17;;;7.10;99.90;;;;;;5013113;28;20187;-77
2023/01/03 02:11:35;;;;;;;7.50;3.50;;;7.00;99.90;;;;;;5013208;28;20199;-76
2023/01/03 02:14:09;;;;;;;5.43;3.87;;;7.00;99.90;;;;;;5012810;28;20225;-76
2023/01/03 02:16:35;;;;;;;4.10;3.70;;;6.90;99.90;;;;;;4995619;28;20179;-79
2023/01/03 02:19:38;;;;;;;4.43;4.03;;;6.90;99.90;;;;;;5013405;28;20177;-76
2023/01/03 02:22:37;;;;;;;4.63;3.80;;;6.90;99.90;;;;;;5013097;28;20610;-77
2023/01/03 02:25:20;;;;;;;4.77;4.10;;;6.90;99.90;;;;;;4975999;28;20218;-78
2023/01/03 02:28:01;;;;;;;5.07;4.30;;;6.90;99.90;;;;;;4995415;28;20175;-77
2023/01/03 02:30:38;;;;;;;4.97;4.43;;;6.80;99.90;;;;;;5013102;28;20184;-76
2023/01/03 02:33:15;;;;;;;5.37;4.57;;;6.80;99.90;;;;;;5012168;28;20560;-77
2023/01/03 02:36:04;;;;;;;5.93;4.60;;;6.70;99.90;;;;;;4995443;28;20175;-77
2023/01/03 02:38:42;;;;;;;5.77;4.90;;;6.70;99.90;;;;;;4995406;28;20206;-77
2023/01/03 02:41:22;;;;;;;7.13;4.73;;;6.70;99.90;;;;;;5011963;28;20237;-76
2023/01/03 02:44:03;;;;;;;5.53;4.17;;;6.70;99.90;;;;;;5012121;28;20206;-76
2023/01/03 02:46:37;;;;;;;6.33;4.40;;;6.70;99.90;;;;;;5012707;28;20170;-77
2023/01/03 02:49:12;;;;;;;6.67;4.80;;;6.60;99.90;;;;;;5012780;28;20171;-76
2023/01/03 02:51:43;;;;;;;6.70;4.80;;;6.60;99.90;;;;;;5012830;28;20198;-79
2023/01/03 02:54:17;;;;;;;6.53;5.07;;;6.60;99.90;;;;;;4994734;28;20185;-76
2023/01/03 02:56:53;;;;;;;5.37;4.77;;;6.60;99.90;;;;;;5012702;28;20177;-76
2023/01/03 02:59:32;;;;;;;5.23;4.73;;;6.50;99.90;;;;;;5012474;28;20588;-77
2023/01/03 03:01:59;;;;;;;6.63;5.20;;;6.50;99.90;;;;;;5012220;28;20202;-77
2023/01/03 03:04:26;;;;;;;5.77;5.17;;;6.50;99.90;;;;;;4994553;28;20209;-77
2023/01/03 03:07:31;;;;;;;7.07;5.03;;;6.40;99.90;;;;;;4995214;28;20205;-76
2023/01/03 03:15:37;;;;;;;6.50;4.97;;;6.30;99.90;;;;;;5012580;28;20711;-77
2023/01/03 03:18:09;;;;;;;6.00;5.30;;;6.30;99.90;;;;;;4994770;28;20706;-77
2023/01/03 03:26:14;;;;;;;6.53;5.30;;;6.30;99.90;;;;;;5012545;28;20177;-77
2023/01/03 03:28:43;;;;;;;6.80;6.10;;;6.20;99.90;;;;;;5012391;28;20694;-76
2023/01/03 03:31:27;;;;;;;7.73;6.30;;;6.20;99.90;;;;;;5012099;28;20676;-77
2023/01/03 03:34:13;;;;;;;8.23;5.90;;;6.30;99.90;;;;;;5011854;28;20178;-77
2023/01/03 03:37:01;;;;;;;7.60;6.07;;;6.30;99.90;;;;;;4994717;28;20181;-77
2023/01/03 03:45:58;;;;;;;6.37;5.60;;;6.30;99.90;;;;;;4984450;28;20205;-77
2023/01/03 03:49:36;;;;;;;5.97;5.03;;;6.30;99.90;;;;;;4994641;28;20269;-76
2023/01/03 03:51:26;;;;;;;7.83;5.80;;;6.30;99.90;;;;;;5011610;28;20334;-77
2023/01/03 03:53:54;;;;;;;7.67;6.00;;;6.20;99.90;;;;;;5011683;28;20170;-77
2023/01/03 03:56:27;;;;;;;7.30;6.10;;;6.30;99.90;;;;;;4994508;28;20169;-77
2023/01/03 03:58:58;;;;;;;8.20;6.63;;;6.30;99.90;;;;;;5012017;28;20171;-79
2023/01/03 04:01:26;;;;;;;9.10;6.27;;;6.30;99.90;;;;;;5011892;28;20185;-77
2023/01/03 04:03:54;;;;;;;9.47;6.77;;;6.30;99.90;;;;;;5011277;28;20292;-76
2023/01/03 04:06:53;;;;;;;8.30;6.67;;;6.40;99.90;;;;;;4994469;28;20181;-76
2023/01/03 04:09:19;;;;;;;9.20;6.73;;;6.40;99.90;;;;;;4968510;28;20644;-77
2023/01/03 04:11:44;;;;;;;9.80;6.77;;;6.40;99.90;;;;;;4994219;28;20191;-77
2023/01/03 04:14:10;;;;;;;9.13;6.70;;;6.40;99.90;;;;;;5010853;28;20241;-76
2023/01/03 04:16:36;;;;;;;8.87;6.30;;;6.50;99.90;;;;;;5011715;28;20183;-77
2023/01/03 04:19:02;;;;;;;9.00;6.80;;;6.50;99.90;;;;;;5012176;28;20675;-77
2023/01/03 04:21:28;;;;;;;8.43;6.57;;;6.50;99.90;;;;;;4994029;28;20245;-76
2023/01/03 04:23:54;;;;;;;8.93;7.17;;;6.60;99.90;;;;;;5011126;28;20249;-77
2023/01/03 04:26:19;;;;;;;8.53;6.73;;;6.60;99.90;;;;;;4994184;28;20175;-77
2023/01/03 04:28:45;;;;;;;10.67;7.50;;;6.60;99.90;;;;;;5011648;28;20179;-76
2023/01/03 04:31:10;;;;;;;9.83;6.97;;;6.60;99.90;;;;;;4994318;28;20187;-76
2023/01/03 04:33:36;;;;;;;9.27;6.70;;;6.50;99.90;;;;;;4997245;28;20204;-77
2023/01/03 04:36:02;;;;;;;10.67;7.37;;;6.50;99.90;;;;;;5015236;28;20665;-77
2023/01/03 04:38:27;;;;;;;11.50;7.60;;;6.50;99.90;;;;;;5015035;28;20730;-76
2023/01/03 04:40:53;;;;;;;10.10;7.40;;;6.40;99.90;;;;;;4997220;28;20609;-75
2023/01/03 04:46:03;;;;;;;12.23;8.13;;;6.40;99.90;;;;;;5015291;28;20213;-76
2023/01/03 04:48:29;;;;;;;13.03;7.97;;;6.40;99.90;;;;;;5015058;28;20199;-77
2023/01/03 04:50:58;;;;;;;13.93;8.53;;;6.50;99.90;;;;;;5014888;28;20192;-77
2023/01/03 04:53:26;;;;;;;14.73;8.37;;;6.50;99.90;;;;;;5014174;28;20185;-76
2023/01/03 04:55:53;;;;;;;13.03;7.83;;;6.50;99.90;;;;;;5014764;28;20249;-76
2023/01/03 04:58:19;;;;;;;10.53;7.07;;;6.50;99.90;;;;;;5014608;28;20184;-78
2023/01/03 05:00:45;;;;;;;9.50;6.83;;;6.50;99.90;;;;;;4997245;28;20178;-76
2023/01/03 05:03:11;;;;;;;9.93;6.70;;;6.50;99.90;;;;;;4996604;28;20228;-77
2023/01/03 05:05:38;;;;;;;9.03;6.80;;;6.40;99.90;;;;;;5014511;28;20715;-76
2023/01/03 05:08:06;;;;;;;7.73;6.27;;;6.40;99.90;;;;;;4996958;28;20170;-77
2023/01/03 05:10:32;;;;;;;10.87;6.30;;;6.30;99.90;;;;;;5014727;28;20230;-76
2023/01/03 05:12:58;;;;;;;8.03;6.10;;;6.30;99.90;;;;;;5013943;28;20237;-77
2023/01/03 05:15:33;;;;;;;8.40;6.47;;;6.20;99.90;;;;;;4996918;28;20175;-77
2023/01/03 05:17:59;;;;;;;7.80;6.03;;;6.20;99.90;;;;;;5014456;28;20173;-76
2023/01/03 05:26:01;;;;;;;8.77;6.20;;;6.00;99.90;;;;;;5014466;28;20189;-77
2023/01/03 05:28:27;;;;;;;8.53;6.30;;;6.00;99.90;;;;;;5013843;28;20644;-77
2023/01/03 05:30:52;;;;;;;8.57;6.00;;;6.00;99.90;;;;;;5013986;28;20185;-77
2023/01/03 05:33:18;;;;;;;7.87;6.00;;;6.00;99.90;;;;;;5013603;28;20181;-76
2023/01/03 05:35:47;;;;;;;8.30;5.73;;;6.00;99.90;;;;;;5012730;28;20185;-76
2023/01/03 05:38:13;;;;;;;8.07;6.03;;;5.90;99.90;;;;;;4996298;28;20177;-78
2023/01/03 05:40:40;;;;;;;8.43;5.93;;;5.80;99.90;;;;;;4996449;28;20183;-77
2023/01/03 05:43:06;;;;;;;8.90;6.00;;;5.70;99.90;;;;;;5011440;28;20524;-77
2023/01/03 05:45:33;;;;;;;9.90;6.27;;;5.70;99.90;;;;;;5012772;28;20180;-77
2023/01/03 05:47:59;;;;;;;8.63;6.17;;;5.70;99.90;;;;;;5013805;28;20173;-78
2023/01/03 05:50:24;;;;;;;9.83;5.90;;;5.70;99.90;;;;;;5013881;28;20230;-77
2023/01/03 05:52:50;;;;;;;7.23;5.47;;;5.70;99.90;;;;;;4995630;28;20251;-76
2023/01/03 05:55:16;;;;;;;8.37;5.73;;;5.60;99.90;;;;;;5013706;28;20548;-78
2023/01/03 05:57:41;;;;;;;8.07;5.47;;;5.60;99.90;;;;;;5013761;28;20230;-78
2023/01/03 06:00:08;;;;;;;6.63;5.27;;;5.60;99.90;;;;;;4996251;28;20173;-77
2023/01/03 06:02:33;;;;;;;7.77;5.53;;;5.50;99.90;;;;;;4995456;28;20261;-77
2023/01/03 06:04:59;;;;;;;7.30;5.33;;;5.50;99.90;;;;;;4996004;28;20471;-76
2023/01/03 06:07:24;;;;;;;6.73;5.23;;;5.50;99.90;;;;;;4995917;28;20183;-77
2023/01/03 06:09:50;;;;;;;7.07;5.03;;;5.50;99.90;;;;;;5013509;28;20181;-77
2023/01/03 06:12:16;;;;;;;6.60;5.00;;;5.50;99.90;;;;;;4995173;28;20194;-77
2023/01/03 06:14:41;;;;;;;6.43;4.63;;;5.50;99.90;;;;;;4995750;28;20182;-77
2023/01/03 06:19:51;;;;;;;9.10;5.00;;;5.50;99.90;;;;;;5013311;28;20214;-76
2023/01/03 06:22:16;;;;;;;7.20;5.10;;;5.50;99.90;;;;;;5048654;22;20241;-82
2023/01/03 06:24:42;;;;;;;7.30;5.20;;;5.40;99.90;;;;;;5017435;28;20206;-81
2023/01/03 06:27:07;;;;;;;7.03;5.20;;;5.40;99.90;;;;;;5017743;28;20195;-80
2023/01/03 06:29:33;;;;;;;7.60;5.40;;;5.40;99.90;;;;;;5034664;28;20184;-80
2023/01/03 06:31:58;;;;;;;7.37;5.60;;;5.30;99.90;;;;;;5017709;28;20188;-81
2023/01/03 06:34:24;;;;;;;8.00;5.67;;;5.20;99.90;;;;;;5016404;28;20225;-81
2023/01/03 06:36:49;;;;;;;6.43;4.70;;;5.50;99.90;;;;;;5034574;28;20187;-80
2023/01/03 06:39:15;;;;;;;7.40;5.37;;;5.90;99.90;;;;;;5016109;28;20183;-80
2023/01/03 06:41:41;;;;;;;5.90;5.10;;;6.00;99.90;;;;;;5014932;28;20207;-80
2023/01/03 06:44:06;;;;;;;6.63;5.70;;;6.00;99.90;;;;;;5015319;28;20269;-80
2023/01/03 06:54:47;;;;;;;7.73;5.47;;;6.10;99.90;;;;;;5033602;28;20189;-81
2023/01/03 06:57:13;;;;;;;7.60;5.57;;;6.00;99.90;;;;;;5015735;28;20176;-81
2023/01/03 06:59:38;;;;;;;7.17;5.60;;;6.00;99.90;;;;;;5033636;28;20203;-81
2023/01/03 07:02:07;;;;;;;6.63;5.20;;;5.90;99.90;;;;;;5015676;28;20196;-83
2023/01/03 07:04:32;;;;;;;6.97;5.10;;;5.80;99.90;;;;;;5015078;28;20211;-81
2023/01/03 07:06:58;;;;;;;5.60;5.00;;;5.80;99.90;;;;;;5015725;28;20176;-81
2023/01/03 07:09:23;;;;;;;6.57;4.80;;;5.70;99.90;;;;;;5015854;28;20179;-81
2023/01/03 07:11:49;;;;;;;5.70;5.10;;;5.60;99.90;;;;;;5015613;28;20227;-81
2023/01/03 07:14:16;;;;;;;6.03;5.17;;;5.50;99.90;;;;;;5033050;28;20183;-82
2023/01/03 07:16:45;;;;;;;6.33;4.77;;;5.40;99.90;;;;;;5016038;28;20179;-82
2023/01/03 07:19:16;;;;;;;6.70;5.37;;;5.30;99.90;;;;;;5033598;28;20241;-82
2023/01/03 07:21:42;;;;;;;7.53;5.40;;;5.20;99.90;;;;;;5015563;28;20215;-82
2023/01/03 07:24:11;;;;;;;7.73;5.50;;;5.20;99.90;;;;;;5015016;28;20264;-82
2023/01/03 07:26:37;;;;;;;6.87;5.37;;;5.10;99.90;;;;;;5033061;28;20182;-86
2023/01/03 07:29:06;;;;;;;7.70;5.33;;;5.10;99.90;;;;;;5033151;28;20194;-81
2023/01/03 07:31:32;;;;;;;6.67;5.37;;;5.20;99.90;;;;;;5033260;28;20228;-83
2023/01/03 07:33:58;;;;;;;7.73;5.13;;;5.20;99.90;;;;;;5014876;28;20264;-81
2023/01/03 07:36:24;;;;;;;6.67;5.17;;;5.30;99.90;;;;;;5015306;28;20189;-79
2023/01/03 07:38:50;;;;;;;8.13;5.23;;;5.30;99.90;;;;;;5032901;28;20175;-82
2023/01/03 07:41:16;;;;;;;6.50;5.13;;;5.30;99.90;;;;;;5032941;28;20180;-83
2023/01/03 07:43:45;;;;;;;6.27;4.80;;;5.30;99.90;;;;;;5014258;28;20202;-82
2023/01/03 07:46:24;;;;;;;6.50;4.90;;;5.30;99.90;;;;;;5032790;28;20286;-82
2023/01/03 07:48:56;;;;;;;7.40;5.23;;;5.30;99.90;;;;;;5034336;28;20182;-81
2023/01/03 07:51:22;;;;;;;7.00;5.20;;;5.30;99.90;;;;;;5016305;28;20178;-82
2023/01/03 07:53:51;;;;;;;5.60;4.90;;;5.20;99.90;;;;;;5015812;28;20238;-81
2023/01/03 07:56:19;;;;;;;5.70;4.53;;;5.20;99.90;;;;;;5033818;28;20179;-82
2023/01/03 07:58:46;;;;;;;6.50;5.10;;;5.20;99.90;;;;;;5016638;28;20177;-82
2023/01/03 08:01:18;;;;;;;7.00;5.33;;;5.20;99.90;;;;;;5034499;28;20226;-82
2023/01/03 08:03:44;;;;;;;7.63;5.43;;;5.20;99.90;;;;;;5033774;28;20262;-82
2023/01/03 08:06:12;;;;;;;6.90;4.87;;;5.20;99.90;;;;;;5016808;28;20661;-83
2023/01/03 08:08:39;;;;;;;7.77;4.97;;;5.20;99.90;;;;;;5039297;28;20176;-82
2023/01/03 08:13:50;;;;;;;7.13;5.60;;;5.20;99.90;;;;;;5039181;28;20270;-85
2023/01/03 08:16:17;;;;;;;8.67;6.10;;;5.20;99.90;;;;;;5020165;28;20255;-82
2023/01/03 08:18:43;;;;;;;9.00;5.83;;;5.20;99.90;;;;;;5018554;28;20189;-83
2023/01/03 08:21:11;;;;;;;7.30;5.80;;;5.20;99.90;;;;;;5035941;28;20179;-83
2023/01/03 08:23:38;;;;;;;8.93;6.37;;;5.10;99.90;;;;;;5018024;28;20210;-83
2023/01/03 08:26:11;;;;;;;8.17;6.57;;;5.20;99.90;;;;;;5018412;28;20181;-83
2023/01/03 08:28:37;;;;;;;7.80;6.20;;;5.20;99.90;;;;;;5033047;28;20190;-84
2023/01/03 08:31:09;;;;;;;7.37;6.10;;;5.30;99.90;;;;;;5018069;28;20281;-83
2023/01/03 08:33:40;;;;;;;9.27;6.80;;;5.30;99.90;;;;;;5035634;28;20214;-83
2023/01/03 08:36:08;;;;;;;9.50;7.10;;;5.40;99.90;;;;;;5018069;28;20732;-82
2023/01/03 08:38:43;;;;;;;9.73;6.60;;;5.50;99.90;;;;;;5036030;28;20184;-84
2023/01/03 08:41:10;;;;;;;9.10;6.23;;;5.60;99.90;;;;;;5018605;28;20217;-83
2023/01/03 08:43:39;;;;;;;8.70;6.50;;;5.60;99.90;;;;;;5035622;28;20203;-82
2023/01/03 08:46:07;;;;;;;9.90;6.70;;;5.80;99.90;;;;;;5018053;28;20175;-83
2023/01/03 08:48:33;;;;;;;10.50;6.90;;;5.90;99.90;;;;;;5017615;28;20171;-82
2023/01/03 08:51:00;;;;;;;9.20;6.77;;;5.90;99.90;;;;;;5017839;28;20767;-84
2023/01/03 08:53:27;;;;;;;8.80;6.03;;;6.00;99.90;;;;;;5035790;28;20209;-83
2023/01/03 08:55:53;;;;;;;8.70;6.17;;;6.10;99.90;;;;;;5036446;28;20176;-84
2023/01/03 08:58:19;;;;;;;8.40;5.60;;;6.10;99.90;;;;;;5036830;28;20184;-83
2023/01/03 09:00:44;;;;;;;7.80;5.77;;;6.20;99.90;;;;;;5037460;28;20176;-83
2023/01/03 09:03:10;;;;;;;7.20;5.83;;;6.30;99.90;;;;;;5018766;28;20200;-82
2023/01/03 09:05:36;;;;;;;8.70;5.90;;;6.50;99.90;;;;;;5018350;28;20271;-82
2023/01/03 09:08:01;;;;;;;6.83;5.80;;;6.40;99.90;;;;;;5036011;28;20188;-83
2023/01/03 09:10:27;;;;;;;9.17;6.10;;;6.40;99.90;;;;;;5036681;28;20178;-82
2023/01/03 09:12:52;;;;;;;9.53;6.50;;;6.40;99.90;;;;;;5035652;28;20540;-83
2023/01/03 09:15:19;;;;;;;9.33;6.67;;;6.40;99.90;;;;;;5036788;28;20181;-83
2023/01/03 09:17:46;;;;;;;8.73;6.67;;;6.30;99.90;;;;;;5036444;28;20236;-81
2023/01/03 09:20:12;;;;;;;8.33;6.63;;;6.30;99.90;;;;;;5017577;28;20180;-81
2023/01/03 09:22:39;;;;;;;8.13;6.57;;;6.30;99.90;;;;;;5016708;28;20354;-83
2023/01/03 09:25:05;;;;;;;9.67;6.70;;;6.30;99.90;;;;;;5017235;28;20217;-82
2023/01/03 09:27:30;;;;;;;8.67;6.50;;;6.30;99.90;;;;;;5017113;28;20172;-82
2023/01/03 09:29:56;;;;;;;8.50;6.27;;;6.30;99.90;;;;;;5034740;28;20641;-82
2023/01/03 09:32:21;;;;;;;8.97;6.67;;;6.30;99.90;;;;;;5034715;28;20201;-82
2023/01/03 09:34:47;;;;;;;10.87;6.70;;;6.30;99.90;;;;;;5017588;28;20204;-82
2023/01/03 09:37:14;;;;;;;9.30;6.43;;;6.30;99.90;;;;;;5017685;28;20552;-83
2023/01/03 09:39:39;;;;;;;8.93;6.30;;;6.30;99.90;;;;;;5017276;28;20176;-82
2023/01/03 09:44:52;;;;;;;10.47;6.40;;;6.30;99.90;;;;;;5034818;28;20312;-83
2023/01/03 09:47:22;;;;;;;9.37;6.60;;;6.30;99.90;;;;;;5035331;28;20178;-82
2023/01/03 09:49:49;;;;;;;12.80;8.07;;;6.30;99.90;;;;;;5034355;28;20235;-82
2023/01/03 10:04:23;;;;;;;10.17;6.23;;;6.40;99.90;;;;;;5033644;28;20214;-82
2023/01/03 10:07:03;;;;;;;11.17;6.17;;;6.50;99.90;;;;;;5016385;28;20728;-82
2023/01/03 10:09:57;;;;;;;8.50;6.27;;;6.50;99.90;;;;;;5016644;28;20183;-82
2023/01/03 10:13:03;;;;;;;8.00;5.60;;;6.60;99.90;;;;;;5033471;28;20242;-80
2023/01/03 10:16:02;;;;;;;9.63;6.40;;;6.60;99.90;;;;;;5034034;28;20176;-82
2023/01/03 10:18:49;;;;;;;10.13;7.37;;;6.70;99.90;;;;;;5016690;28;20237;-84
2023/01/03 10:21:42;;;;;;;9.80;6.50;;;6.80;99.90;;;;;;5033742;28;20252;-82
2023/01/03 10:24:21;;;;;;;8.10;5.77;;;6.90;99.90;;;;;;5033286;28;20311;-83
2023/01/03 10:26:54;;;;;;;8.77;6.80;;;6.90;99.90;;;;;;5033953;28;20401;-84
2023/01/03 10:29:20;;;;;;;9.90;6.57;;;6.90;99.90;;;;;;5015820;28;20172;-82
2023/01/03 10:32:04;;;;;;;9.10;5.73;;;7.00;99.90;;;;;;5016112;28;20197;-81
2023/01/03 10:34:29;;;;;;;8.70;6.07;;;6.90;99.90;;;;;;5033548;28;20177;-80
2023/01/03 10:36:55;;;;;;;8.70;5.73;;;6.90;99.90;;;;;;5016130;28;20185;-82
2023/01/03 10:39:31;;;;;;;7.67;5.53;;;6.90;99.90;;;;;;5016558;28;20184;-83
2023/01/03 10:41:58;;;;;;;8.70;5.77;;;6.90;99.90;;;;;;5015585;28;20207;-82
2023/01/03 10:44:31;;;;;;;8.90;5.87;;;6.90;99.90;;;;;;5033944;28;20266;-83
2023/01/03 10:47:09;;;;;;;6.93;5.37;;;7.00;99.90;;;;;;5019008;28;20212;-82
2023/01/03 10:49:34;;;;;;;6.00;5.20;;;7.00;99.90;;;;;;5035885;28;20179;-81
2023/01/03 10:52:10;;;;;;;8.27;6.23;;;7.10;99.90;;;;;;5035911;28;20226;-81
2023/01/03 10:54:42;;;;;;;9.10;5.97;;;7.10;99.90;;;;;;5035269;28;20181;-82
2023/01/03 10:57:47;;;;;;;6.13;5.30;;;7.40;99.90;;;;;;5053180;28;20181;-82
2023/01/03 11:00:30;;;;;;;6.87;5.43;;;7.60;99.90;;;;;;5030313;28;20565;-81
2023/01/03 11:03:15;;;;;;;6.33;4.63;;;7.60;99.90;;;;;;5011166;28;20216;-80
2023/01/03 11:05:44;;;;;;;8.70;5.57;;;7.70;99.90;;;;;;5023246;28;20182;-79
2023/01/03 11:08:43;;;;;;;6.37;4.70;;;8.30;99.90;;;;;;5016810;28;20174;-79
2023/01/03 11:11:29;;;;;;;5.37;4.87;;;9.80;99.90;;;;;;5011598;28;20179;-84
2023/01/03 11:14:22;;;;;;;6.00;5.40;;;10.80;99.90;;;;;;5015292;28;20190;-84
2023/01/03 11:17:14;;;;;;;5.83;5.13;;;10.20;99.90;;;;;;5033244;28;20238;-84
2023/01/03 11:19:40;;;;;;;5.43;4.50;;;9.60;99.90;;;;;;5028690;28;20189;-83
2023/01/03 11:22:13;;;;;;;6.67;4.67;;;9.20;99.90;;;;;;5014929;28;20227;-83
2023/01/03 11:25:08;;;;;;;5.53;4.60;;;8.80;99.90;;;;;;5027563;28;20206;-81
2023/01/03 11:27:42;;;;;;;5.17;4.67;;;8.60;99.90;;;;;;5014444;28;20175;-83
2023/01/03 11:30:44;;;;;;;6.43;5.00;;;8.80;99.90;;;;;;5029583;28;20185;-84
2023/01/03 11:33:35;;;;;;;5.23;4.17;;;9.30;99.90;;;;;;4990404;28;20291;-83
2023/01/03 11:36:21;;;;;;;5.67;4.70;;;9.20;99.90;;;;;;5012145;28;20176;-83
2023/01/03 11:39:21;;;;;;;5.50;4.50;;;9.00;99.90;;;;;;5015201;28;20213;-83
2023/01/03 11:42:09;;;;;;;6.73;4.60;;;9.00;99.90;;;;;;5002524;28;20227;-83
2023/01/03 11:45:04;;;;;;;6.67;4.80;;;8.80;99.90;;;;;;5004115;28;20210;-83
2023/01/03 11:48:07;;;;;;;6.30;4.60;;;8.60;99.90;;;;;;4998926;28;20267;-83
2023/01/03 11:51:10;;;;;;;5.40;4.53;;;8.40;99.90;;;;;;4998950;28;20178;-83
2023/01/03 11:53:43;;;;;;;6.27;4.40;;;8.10;99.90;;;;;;4998690;28;20167;-83
2023/01/03 11:56:28;;;;;;;6.50;4.80;;;8.00;99.90;;;;;;4999343;28;20182;-82
2023/01/03 11:59:14;;;;;;;7.33;5.07;;;8.00;99.90;;;;;;5016732;28;20257;-82
2023/01/03 12:02:06;;;;;;;6.90;5.10;;;7.90;99.90;;;;;;4999239;28;20199;-83
2023/01/03 12:05:05;;;;;;;6.37;4.73;;;7.90;99.90;;;;;;5006832;28;20214;-83
2023/01/03 12:07:46;;;;;;;6.07;5.20;;;7.80;99.90;;;;;;5012469;28;20182;-81
2023/01/03 12:10:49;;;;;;;5.97;5.27;;;7.80;99.90;;;;;;5019430;28;20269;-83
2023/01/03 12:13:20;;;;;;;6.30;5.10;;;7.80;99.90;;;;;;5010226;28;20676;-83
2023/01/03 12:15:55;;;;;;;6.70;5.03;;;7.80;99.90;;;;;;5018672;28;20194;-84
2023/01/03 12:18:48;;;;;;;6.53;5.20;;;7.80;99.90;;;;;;5018802;28;20176;-84
2023/01/03 12:21:30;;;;;;;6.90;5.10;;;8.10;99.90;;;;;;5018250;28;20177;-85
2023/01/03 12:26:25;;;;;;;6.67;4.60;;;8.20;99.90;;;;;;5015332;28;20208;-85
2023/01/03 12:29:05;;;;;;;6.97;4.90;;;8.10;99.90;;;;;;5015760;28;20266;-82
2023/01/03 12:31:46;;;;;;;5.80;5.03;;;8.00;99.90;;;;;;5024425;28;20195;-80
2023/01/03 12:34:24;;;;;;;5.70;4.83;;;8.00;99.90;;;;;;4995158;28;20220;-83
2023/01/03 12:37:19;;;;;;;6.10;4.50;;;8.10;99.90;;;;;;4995926;28;20160;-83
2023/01/03 12:39:48;;;;;;;5.67;4.50;;;8.10;99.90;;;;;;5011384;28;20715;-83
2023/01/03 12:42:31;;;;;;;6.20;4.67;;;8.10;99.90;;;;;;4992800;28;20200;-81
2023/01/03 12:45:12;;;;;;;6.40;5.00;;;8.00;99.90;;;;;;4994885;28;20223;-83
2023/01/03 12:47:44;;;;;;;5.63;4.20;;;8.00;99.90;;;;;;4994697;28;20183;-84
2023/01/03 12:50:36;;;;;;;4.83;4.10;;;8.00;99.90;;;;;;4994800;28;20172;-84
2023/01/03 12:53:38;;;;;;;5.63;4.00;;;7.90;99.90;;;;;;5009229;28;20199;-83
2023/01/03 12:56:19;;;;;;;5.50;4.33;;;7.90;99.90;;;;;;4995297;28;20196;-83
2023/01/03 12:58:56;;;;;;;5.93;4.13;;;7.90;99.90;;;;;;5011642;28;20215;-83
2023/01/03 13:01:42;;;;;;;3.97;3.57;;;7.80;99.90;;;;;;4995081;28;20295;-83
2023/01/03 13:04:16;;;;;;;6.13;3.50;;;7.90;99.90;;;;;;5010680;28;20223;-84
2023/01/03 13:06:52;;;;;;;4.70;3.53;;;7.80;99.90;;;;;;4995042;28;20199;-83
2023/01/03 13:09:22;;;;;;;5.87;5.27;;;7.80;99.90;;;;;;5011390;28;20175;-84
2023/01/03 13:11:58;;;;;;;6.93;3.87;;;7.80;99.90;;;;;;4994695;28;20176;-83
2023/01/03 13:14:27;;;;;;;4.53;3.67;;;7.80;99.90;;;;;;4995380;28;20178;-84
2023/01/03 13:16:55;;;;;;;4.23;3.50;;;7.80;99.90;;;;;;5010851;28;20176;-84
2023/01/03 13:19:21;;;;;;;4.93;3.20;;;7.70;99.90;;;;;;4995799;28;20219;-83
2023/01/03 13:22:02;;;;;;;7.23;3.50;;;7.80;99.90;;;;;;4994576;28;20226;-83
2023/01/03 13:24:46;;;;;;;6.80;3.50;;;7.80;99.90;;;;;;4995025;28;20760;-83
2023/01/03 13:27:21;;;;;;;4.90;3.97;;;7.80;99.90;;;;;;4994342;28;20640;-83
2023/01/03 13:29:50;;;;;;;4.70;3.57;;;7.80;99.90;;;;;;4994195;28;20261;-83
2023/01/03 13:32:24;;;;;;;5.43;3.70;;;7.80;99.90;;;;;;4994873;28;20225;-83
2023/01/03 13:34:53;;;;;;;6.13;3.37;;;7.80;99.90;;;;;;4995582;28;20653;-83
2023/01/03 13:37:21;;;;;;;5.77;3.43;;;7.80;99.90;;;;;;4995629;28;20318;-83
2023/01/03 13:39:49;;;;;;;5.87;3.40;;;7.90;99.90;;;;;;4995130;28;20184;-83
2023/01/03 13:42:28;;;;;;;4.03;3.63;;;7.80;99.90;;;;;;4995022;28;20705;-83
2023/01/03 13:45:14;;;;;;;5.03;3.50;;;7.80;99.90;;;;;;4995506;28;20353;-83
2023/01/03 13:47:57;;;;;;;3.73;3.33;;;7.80;99.90;;;;;;5010500;28;20178;-83
2023/01/03 13:50:34;;;;;;;4.53;3.30;;;7.80;99.90;;;;;;5010765;28;20170;-82
2023/01/03 13:53:10;;;;;;;3.67;3.20;;;7.80;99.90;;;;;;5008601;28;20334;-83
2023/01/03 13:55:47;;;;;;;4.97;2.80;;;7.70;99.90;;;;;;4995299;28;20210;-83
2023/01/03 13:58:39;;;;;;;4.93;2.80;;;7.80;99.90;;;;;;4994674;28;20173;-83
2023/01/03 14:01:19;;;;;;;3.47;3.07;;;7.70;99.90;;;;;;4995183;28;20654;-85
2023/01/03 14:04:01;;;;;;;5.80;3.30;;;7.70;99.90;;;;;;4992897;28;20208;-84
2023/01/03 14:06:51;;;;;;;15.17;9.07;;;7.60;99.90;;;;;;4995121;28;20638;-83
2023/01/03 14:09:35;;;;;;;4.00;3.30;;;7.70;99.90;;;;;;5010679;28;20273;-83
2023/01/03 14:12:24;;;;;;;4.53;4.13;;;7.60;99.90;;;;;;4992885;28;20670;-84
2023/01/03 14:14:55;;;;;;;4.70;3.33;;;7.50;99.90;;;;;;4993599;28;20184;-83
2023/01/03 14:17:31;;;;;;;5.00;3.27;;;7.50;99.90;;;;;;4995009;28;20652;-84
2023/01/03 14:20:03;;;;;;;5.30;3.50;;;7.50;99.90;;;;;;4994998;28;20178;-83
2023/01/03 14:22:38;;;;;;;4.93;4.37;;;7.60;99.90;;;;;;4993365;28;20214;-83